Douglas B.gurian — WDH7352 — position and weather

sailwx.info

Track history (hours):
 
Tides and Currents Weather Stations Pressure Air Temp Water Temp Dewpoint Dewpoint Depression Visibility Wind Speed Wind Dir Waves Ship Positions

Douglas B.gurian

Owner: Port Imperial Ferry Corporation, Weehawken, NJ. More information available from US FCC via Universal Licensing System and Coast Guard Vessel Documentation Center.

Last reported at 2018-Nov-11 01:13 UTC. Time now 2018-Nov-14 09:15 UTC.
Position N 40°46' W 074°01'.

Length 21 m; draft 2 m.

Type: Passenger vessel. MMSI: 366834170.

Date/timePositionNaut miles runAvg speedWind from/ knotsBaromVisibWave heightAir tempDewpointWater temp
2018-Nov-11 01:13N 40°46' W 074°01'0 1.3
2018-Nov-11 01:02N 40°46' W 074°00'4 7.3
2018-Nov-11 00:32N 40°43' W 074°01'3 5.5
2018-Nov-11 00:02N 40°46' W 074°00'3 5.7
2018-Nov-10 23:32N 40°43' W 074°01'3 5.7
2018-Nov-10 23:02N 40°46' W 074°00'3 5.6
2018-Nov-10 22:32N 40°43' W 074°01'3 5.6
2018-Nov-10 22:02N 40°46' W 074°00'3 5.7
2018-Nov-10 21:32N 40°43' W 074°01'3 5.5
2018-Nov-10 21:02N 40°46' W 074°00'3 5.6
2018-Nov-10 20:32N 40°43' W 074°01'3 5.8
2018-Nov-10 20:02N 40°46' W 074°00'3 5.8
2018-Nov-10 19:32N 40°43' W 074°01'3 5.6
2018-Nov-10 19:02N 40°46' W 074°00'3 5.7
2018-Nov-10 18:32N 40°43' W 074°01'3 5.5
2018-Nov-10 18:02N 40°46' W 074°00'3 5.8
2018-Nov-10 17:32N 40°43' W 074°01'3 5.9
2018-Nov-10 17:03N 40°46' W 074°00'3 5.8
2018-Nov-10 16:32N 40°43' W 074°01'3 5.5
2018-Nov-10 16:02N 40°46' W 074°00'3 5.8
2018-Nov-10 15:32N 40°43' W 074°01'4 7.3
2018-Nov-10 15:02N 40°47' W 074°01'0 0.6
2018-Nov-10 14:32N 40°46' W 074°01'0 0.0
2018-Nov-10 14:02N 40°46' W 074°01'0 0.0
2018-Nov-10 00:38N 40°46' W 074°01'326.6
2018-Nov-10 00:33N 40°44' W 074°02'1 1.7
2018-Nov-10 00:02N 40°43' W 074°02'1 1.0
2018-Nov-09 23:32N 40°43' W 074°03'0 0.5
2018-Nov-09 23:02N 40°43' W 074°02'0 0.4
2018-Nov-09 22:32N 40°43' W 074°03'0 0.8
2018-Nov-09 22:03N 40°43' W 074°02'4 1.2
2018-Nov-09 18:44N 40°46' W 074°01'211.6
2018-Nov-09 18:32N 40°44' W 074°02'2 0.6
2018-Nov-09 15:00N 40°46' W 074°01'4 8.4
2018-Nov-09 14:32N 40°43' W 074°02'0 0.1
2018-Nov-09 14:03N 40°43' W 074°02'0 0.1
2018-Nov-09 13:33N 40°43' W 074°02'0 0.0
2018-Nov-09 13:02N 40°43' W 074°02'0 0.0
2018-Nov-09 12:32N 40°43' W 074°02'0 0.0
2018-Nov-09 12:02N 40°43' W 074°02'0 0.1
2018-Nov-09 11:32N 40°43' W 074°02'0 0.1
2018-Nov-09 11:02N 40°43' W 074°02'0 0.0
2018-Nov-09 01:15N 40°43' W 074°03'0 0.0
2018-Nov-09 01:02N 40°43' W 074°03'1 1.2
2018-Nov-09 00:33N 40°43' W 074°02'1 1.2
2018-Nov-09 00:03N 40°43' W 074°03'0 0.7
2018-Nov-08 23:32N 40°43' W 074°02'1 2.4
2018-Nov-08 23:03N 40°42' W 074°01'0 0.3
2018-Nov-08 22:33N 40°42' W 074°01'0 0.2
2018-Nov-08 22:03N 40°42' W 074°01'1 1.1
2018-Nov-08 21:32N 40°42' W 074°00'0 0.8
2018-Nov-08 21:03N 40°42' W 074°01'0 0.3
2018-Nov-08 20:33N 40°42' W 074°01'0 0.1
2018-Nov-08 20:03N 40°42' W 074°01'1 1.2
2018-Nov-08 19:32N 40°42' W 074°00'0 0.6
2018-Nov-08 19:02N 40°42' W 074°01'0 0.5
2018-Nov-08 18:33N 40°42' W 074°00'0 0.4
2018-Nov-08 18:03N 40°42' W 074°01'0 0.1
2018-Nov-08 17:33N 40°42' W 074°01'0 0.1
2018-Nov-08 17:02N 40°42' W 074°01'0 0.2
2018-Nov-08 16:32N 40°42' W 074°01'0 0.3
2018-Nov-08 16:03N 40°42' W 074°00'0 0.5
2018-Nov-08 15:32N 40°42' W 074°01'0 0.5
2018-Nov-08 15:02N 40°42' W 074°00'2 3.2
2018-Nov-08 14:33N 40°43' W 074°02'2 3.3
2018-Nov-08 14:03N 40°42' W 074°01'0 0.6
2018-Nov-08 13:33N 40°42' W 074°01'0 0.6
2018-Nov-08 13:03N 40°42' W 074°01'0 0.1
2018-Nov-08 12:33N 40°42' W 074°01'3 5.3
2018-Nov-08 12:02N 40°45' W 074°01'2 0.1
2018-Nov-08 00:41N 40°46' W 074°01'325.5
2018-Nov-08 00:33N 40°43' W 074°02'111.4
2018-Nov-08 00:29N 40°43' W 074°03'1 1.3
2018-Nov-08 00:02N 40°43' W 074°02'1 1.1
2018-Nov-07 23:32N 40°43' W 074°03'0 1.0
2018-Nov-07 23:03N 40°43' W 074°02'0 0.7
2018-Nov-07 22:32N 40°43' W 074°02'0 0.4
2018-Nov-07 22:03N 40°43' W 074°02'1 2.6
2018-Nov-07 21:32N 40°41' W 074°02'1 1.1
2018-Nov-07 21:03N 40°42' W 074°01'2 4.7
2018-Nov-07 20:32N 40°41' W 074°05'0 0.0
2018-Nov-07 15:48N 40°41' W 074°04'518.8
2018-Nov-07 15:33N 40°45' W 074°01'1 2.1
2018-Nov-07 15:02N 40°46' W 074°01'612.0
2018-Nov-07 14:32N 40°41' W 074°04'2 3.4
2018-Nov-07 14:03N 40°41' W 074°02'1 2.9
2018-Nov-07 13:33N 40°42' W 074°01'0 0.6
2018-Nov-07 13:02N 40°42' W 074°01'1 2.7
2018-Nov-07 12:33N 40°41' W 074°02'1 2.7
2018-Nov-07 12:02N 40°41' W 074°04'0 0.8
2018-Nov-07 11:32N 40°41' W 074°05'0 0.4
2018-Nov-07 11:02N 40°41' W 074°04'0 0.0
2018-Nov-06 23:31N 40°41' W 074°04'0 0.2
2018-Nov-06 23:03N 40°41' W 074°04'0 5.1
2018-Nov-06 23:00N 40°41' W 074°05'2 1.9
2018-Nov-06 22:00N 40°41' W 074°02'1 2.7
2018-Nov-06 21:30N 40°42' W 074°01'1 2.2
2018-Nov-06 21:04N 40°41' W 074°02'119.7
2018-Nov-06 21:01N 40°42' W 074°01'3 0.5
2018-Nov-06 15:01N 40°41' W 074°05'0 0.0
2018-Nov-06 15:00N 40°41' W 074°05'0 0.0
2018-Nov-06 14:30N 40°41' W 074°05'1 2.9
2018-Nov-06 14:03N 40°41' W 074°03'118.0
2018-Nov-06 14:00N 40°41' W 074°04'2 3.9
2018-Nov-06 13:31N 40°41' W 074°02'0 0.9
2018-Nov-06 13:03N 40°42' W 074°01'111.2
2018-Nov-06 13:00N 40°42' W 074°01'1 1.9
2018-Nov-06 12:31N 40°42' W 074°02'2 4.4
2018-Nov-06 12:03N 40°41' W 074°04'112.4
2018-Nov-06 12:00N 40°41' W 074°04'1 1.8
2018-Nov-06 11:30N 40°41' W 074°05'0 0.9
2018-Nov-06 11:03N 40°41' W 074°04'0 8.1
2018-Nov-06 11:00N 40°41' W 074°05'3 0.3
2018-Nov-06 00:31N 40°42' W 074°01'3 2.8
2018-Nov-05 23:31N 40°41' W 074°04'0 0.5
2018-Nov-05 23:03N 40°41' W 074°04'0 6.1
2018-Nov-05 23:00N 40°41' W 074°05'0 0.7
2018-Nov-05 22:30N 40°41' W 074°04'2 4.2
2018-Nov-05 22:03N 40°41' W 074°02'116.9
2018-Nov-05 22:00N 40°41' W 074°03'2 3.2
2018-Nov-05 21:30N 40°42' W 074°01'0 0.6
2018-Nov-05 21:03N 40°42' W 074°01'111.3
2018-Nov-05 21:00N 40°42' W 074°01'3 5.9
2018-Nov-05 20:30N 40°41' W 074°05'0 0.0
2018-Nov-05 20:03N 40°41' W 074°05'0 0.0
2018-Nov-05 20:00N 40°41' W 074°05'0 0.0
2018-Nov-05 15:55N 40°41' W 074°05'4 9.2
2018-Nov-05 15:30N 40°44' W 074°01'2 4.8
2018-Nov-05 15:03N 40°46' W 074°01'0 0.0
2018-Nov-05 15:00N 40°46' W 074°01'610.6
2018-Nov-05 14:27N 40°41' W 074°05'1 3.4
2018-Nov-05 14:03N 40°40' W 074°03'2 2.0
2018-Nov-05 13:03N 40°42' W 074°01'111.6
2018-Nov-05 13:01N 40°42' W 074°01'0 0.4
2018-Nov-05 12:30N 40°42' W 074°01'3 5.8
2018-Nov-05 12:03N 40°41' W 074°04'119.7
2018-Nov-05 12:00N 40°41' W 074°03'1 2.6
2018-Nov-05 11:30N 40°41' W 074°04'0 0.9
2018-Nov-05 11:03N 40°41' W 074°04'0 8.7
2018-Nov-05 11:00N 40°41' W 074°05'  
2018-Nov-03 00:09N 40°44' W 074°02'0 0.0
2018-Nov-03 00:03N 40°44' W 074°02'0 0.1
2018-Nov-03 00:00N 40°44' W 074°02'2 4.3
2018-Nov-02 23:31N 40°42' W 074°01'3 6.3
2018-Nov-02 23:03N 40°41' W 074°04'118.8
2018-Nov-02 23:01N 40°41' W 074°03'1 2.1
2018-Nov-02 22:31N 40°41' W 074°04'0 0.5
2018-Nov-02 22:03N 40°41' W 074°04'0 0.4
2018-Nov-02 22:00N 40°41' W 074°04'0 1.0
2018-Nov-02 21:30N 40°41' W 074°04'3 5.9
2018-Nov-02 21:03N 40°42' W 074°01'119.2
2018-Nov-02 21:00N 40°41' W 074°02'1 2.3
2018-Nov-02 20:30N 40°42' W 074°01'1 2.4
2018-Nov-02 20:04N 40°41' W 074°02'120.7
2018-Nov-02 20:00N 40°42' W 074°01'3 6.0
2018-Nov-02 19:30N 40°41' W 074°04'0 0.0
2018-Nov-02 15:22N 40°41' W 074°04'2 8.2
2018-Nov-02 15:04N 40°43' W 074°02'111.7
2018-Nov-02 15:01N 40°43' W 074°01'3 6.0
2018-Nov-02 14:30N 40°46' W 074°01'0 0.0
2018-Nov-02 14:00N 40°46' W 074°01'611.7
2018-Nov-02 13:30N 40°41' W 074°05'2 3.5
2018-Nov-02 13:04N 40°41' W 074°03'123.4
2018-Nov-02 13:01N 40°41' W 074°04'2 3.6
2018-Nov-02 12:31N 40°41' W 074°02'1 2.2
2018-Nov-02 12:03N 40°42' W 074°01'0 1.8
2018-Nov-02 12:01N 40°42' W 074°01'1 1.3
2018-Nov-02 11:31N 40°42' W 074°01'2 4.8
2018-Nov-02 11:03N 40°41' W 074°04'113.4
2018-Nov-02 11:00N 40°41' W 074°03'1 2.3
2018-Nov-02 10:30N 40°41' W 074°04'0 0.8
2018-Nov-02 10:03N 40°41' W 074°04'0 6.6
2018-Nov-02 10:00N 40°41' W 074°05'0 0.0
2018-Nov-01 23:40N 40°41' W 074°04'318.3
2018-Nov-01 23:31N 40°42' W 074°01'3 6.1
2018-Nov-01 23:03N 40°41' W 074°04'117.2
2018-Nov-01 23:01N 40°41' W 074°03'1 1.9
2018-Nov-01 22:30N 40°41' W 074°04'0 0.5
2018-Nov-01 22:03N 40°41' W 074°04'0 8.5
2018-Nov-01 22:00N 40°41' W 074°04'1 1.8
2018-Nov-01 21:31N 40°41' W 074°04'3 6.0
2018-Nov-01 21:04N 40°42' W 074°01'119.9
2018-Nov-01 21:00N 40°41' W 074°02'1 2.1
2018-Nov-01 20:30N 40°42' W 074°01'1 2.5
2018-Nov-01 20:03N 40°41' W 074°02'122.3
2018-Nov-01 20:00N 40°42' W 074°01'3 0.5
2018-Nov-01 14:09N 40°41' W 074°04'0 1.9
2018-Nov-01 14:00N 40°41' W 074°04'0 0.6
2018-Nov-01 13:30N 40°41' W 074°05'2 3.5
2018-Nov-01 13:03N 40°41' W 074°03'121.2
2018-Nov-01 13:00N 40°41' W 074°04'1 2.2
2018-Nov-01 12:30N 40°41' W 074°03'2 4.7
2018-Nov-01 12:03N 40°42' W 074°01'0 4.8
2018-Nov-01 12:00N 40°42' W 074°01'1 2.8
2018-Nov-01 11:30N 40°41' W 074°02'1 3.1
2018-Nov-01 11:03N 40°41' W 074°04'117.5
2018-Nov-01 11:00N 40°41' W 074°03'1 2.0
2018-Nov-01 10:30N 40°41' W 074°04'0 0.4
2018-Nov-01 10:03N 40°41' W 074°04'0 6.7
2018-Nov-01 10:00N 40°41' W 074°05'  
Track history (hours):
 
Tides and Currents Weather Stations Pressure Air Temp Water Temp Dewpoint Dewpoint Depression Visibility Wind Speed Wind Dir Waves Ship Positions

Douglas B.gurian

Owner: Port Imperial Ferry Corporation, Weehawken, NJ. More information available from US FCC via Universal Licensing System and Coast Guard Vessel Documentation Center.

Last reported at 2018-Nov-11 01:13 UTC. Time now 2018-Nov-14 09:15 UTC.
Position N 40°46' W 074°01'.

Length 21 m; draft 2 m.

Type: Passenger vessel. MMSI: 366834170.

Date/timePositionNaut miles runAvg speedWind from/ knotsBaromVisibWave heightAir tempDewpointWater temp
2018-Nov-11 01:13N 40°46' W 074°01'0 1.3
2018-Nov-11 01:02N 40°46' W 074°00'4 7.3
2018-Nov-11 00:32N 40°43' W 074°01'3 5.5
2018-Nov-11 00:02N 40°46' W 074°00'3 5.7
2018-Nov-10 23:32N 40°43' W 074°01'3 5.7
2018-Nov-10 23:02N 40°46' W 074°00'3 5.6
2018-Nov-10 22:32N 40°43' W 074°01'3 5.6
2018-Nov-10 22:02N 40°46' W 074°00'3 5.7
2018-Nov-10 21:32N 40°43' W 074°01'3 5.5
2018-Nov-10 21:02N 40°46' W 074°00'3 5.6
2018-Nov-10 20:32N 40°43' W 074°01'3 5.8
2018-Nov-10 20:02N 40°46' W 074°00'3 5.8
2018-Nov-10 19:32N 40°43' W 074°01'3 5.6
2018-Nov-10 19:02N 40°46' W 074°00'3 5.7
2018-Nov-10 18:32N 40°43' W 074°01'3 5.5
2018-Nov-10 18:02N 40°46' W 074°00'3 5.8
2018-Nov-10 17:32N 40°43' W 074°01'3 5.9
2018-Nov-10 17:03N 40°46' W 074°00'3 5.8
2018-Nov-10 16:32N 40°43' W 074°01'3 5.5
2018-Nov-10 16:02N 40°46' W 074°00'3 5.8
2018-Nov-10 15:32N 40°43' W 074°01'4 7.3
2018-Nov-10 15:02N 40°47' W 074°01'0 0.6
2018-Nov-10 14:32N 40°46' W 074°01'0 0.0
2018-Nov-10 14:02N 40°46' W 074°01'0 0.0
2018-Nov-10 00:38N 40°46' W 074°01'326.6
2018-Nov-10 00:33N 40°44' W 074°02'1 1.7
2018-Nov-10 00:02N 40°43' W 074°02'1 1.0
2018-Nov-09 23:32N 40°43' W 074°03'0 0.5
2018-Nov-09 23:02N 40°43' W 074°02'0 0.4
2018-Nov-09 22:32N 40°43' W 074°03'0 0.8
2018-Nov-09 22:03N 40°43' W 074°02'4 1.2
2018-Nov-09 18:44N 40°46' W 074°01'211.6
2018-Nov-09 18:32N 40°44' W 074°02'2 0.6
2018-Nov-09 15:00N 40°46' W 074°01'4 8.4
2018-Nov-09 14:32N 40°43' W 074°02'0 0.1
2018-Nov-09 14:03N 40°43' W 074°02'0 0.1
2018-Nov-09 13:33N 40°43' W 074°02'0 0.0
2018-Nov-09 13:02N 40°43' W 074°02'0 0.0
2018-Nov-09 12:32N 40°43' W 074°02'0 0.0
2018-Nov-09 12:02N 40°43' W 074°02'0 0.1
2018-Nov-09 11:32N 40°43' W 074°02'0 0.1
2018-Nov-09 11:02N 40°43' W 074°02'0 0.0
2018-Nov-09 01:15N 40°43' W 074°03'0 0.0
2018-Nov-09 01:02N 40°43' W 074°03'1 1.2
2018-Nov-09 00:33N 40°43' W 074°02'1 1.2
2018-Nov-09 00:03N 40°43' W 074°03'0 0.7
2018-Nov-08 23:32N 40°43' W 074°02'1 2.4
2018-Nov-08 23:03N 40°42' W 074°01'0 0.3
2018-Nov-08 22:33N 40°42' W 074°01'0 0.2
2018-Nov-08 22:03N 40°42' W 074°01'1 1.1
2018-Nov-08 21:32N 40°42' W 074°00'0 0.8
2018-Nov-08 21:03N 40°42' W 074°01'0 0.3
2018-Nov-08 20:33N 40°42' W 074°01'0 0.1
2018-Nov-08 20:03N 40°42' W 074°01'1 1.2
2018-Nov-08 19:32N 40°42' W 074°00'0 0.6
2018-Nov-08 19:02N 40°42' W 074°01'0 0.5
2018-Nov-08 18:33N 40°42' W 074°00'0 0.4
2018-Nov-08 18:03N 40°42' W 074°01'0 0.1
2018-Nov-08 17:33N 40°42' W 074°01'0 0.1
2018-Nov-08 17:02N 40°42' W 074°01'0 0.2
2018-Nov-08 16:32N 40°42' W 074°01'0 0.3
2018-Nov-08 16:03N 40°42' W 074°00'0 0.5
2018-Nov-08 15:32N 40°42' W 074°01'0 0.5
2018-Nov-08 15:02N 40°42' W 074°00'2 3.2
2018-Nov-08 14:33N 40°43' W 074°02'2 3.3
2018-Nov-08 14:03N 40°42' W 074°01'0 0.6
2018-Nov-08 13:33N 40°42' W 074°01'0 0.6
2018-Nov-08 13:03N 40°42' W 074°01'0 0.1
2018-Nov-08 12:33N 40°42' W 074°01'3 5.3
2018-Nov-08 12:02N 40°45' W 074°01'2 0.1
2018-Nov-08 00:41N 40°46' W 074°01'325.5
2018-Nov-08 00:33N 40°43' W 074°02'111.4
2018-Nov-08 00:29N 40°43' W 074°03'1 1.3
2018-Nov-08 00:02N 40°43' W 074°02'1 1.1
2018-Nov-07 23:32N 40°43' W 074°03'0 1.0
2018-Nov-07 23:03N 40°43' W 074°02'0 0.7
2018-Nov-07 22:32N 40°43' W 074°02'0 0.4
2018-Nov-07 22:03N 40°43' W 074°02'1 2.6
2018-Nov-07 21:32N 40°41' W 074°02'1 1.1
2018-Nov-07 21:03N 40°42' W 074°01'2 4.7
2018-Nov-07 20:32N 40°41' W 074°05'0 0.0
2018-Nov-07 15:48N 40°41' W 074°04'518.8
2018-Nov-07 15:33N 40°45' W 074°01'1 2.1
2018-Nov-07 15:02N 40°46' W 074°01'612.0
2018-Nov-07 14:32N 40°41' W 074°04'2 3.4
2018-Nov-07 14:03N 40°41' W 074°02'1 2.9
2018-Nov-07 13:33N 40°42' W 074°01'0 0.6
2018-Nov-07 13:02N 40°42' W 074°01'1 2.7
2018-Nov-07 12:33N 40°41' W 074°02'1 2.7
2018-Nov-07 12:02N 40°41' W 074°04'0 0.8
2018-Nov-07 11:32N 40°41' W 074°05'0 0.4
2018-Nov-07 11:02N 40°41' W 074°04'0 0.0
2018-Nov-06 23:31N 40°41' W 074°04'0 0.2
2018-Nov-06 23:03N 40°41' W 074°04'0 5.1
2018-Nov-06 23:00N 40°41' W 074°05'2 1.9
2018-Nov-06 22:00N 40°41' W 074°02'1 2.7
2018-Nov-06 21:30N 40°42' W 074°01'1 2.2
2018-Nov-06 21:04N 40°41' W 074°02'119.7
2018-Nov-06 21:01N 40°42' W 074°01'3 0.5
2018-Nov-06 15:01N 40°41' W 074°05'0 0.0
2018-Nov-06 15:00N 40°41' W 074°05'0 0.0
2018-Nov-06 14:30N 40°41' W 074°05'1 2.9
2018-Nov-06 14:03N 40°41' W 074°03'118.0
2018-Nov-06 14:00N 40°41' W 074°04'2 3.9
2018-Nov-06 13:31N 40°41' W 074°02'0 0.9
2018-Nov-06 13:03N 40°42' W 074°01'111.2
2018-Nov-06 13:00N 40°42' W 074°01'1 1.9
2018-Nov-06 12:31N 40°42' W 074°02'2 4.4
2018-Nov-06 12:03N 40°41' W 074°04'112.4
2018-Nov-06 12:00N 40°41' W 074°04'1 1.8
2018-Nov-06 11:30N 40°41' W 074°05'0 0.9
2018-Nov-06 11:03N 40°41' W 074°04'0 8.1
2018-Nov-06 11:00N 40°41' W 074°05'3 0.3
2018-Nov-06 00:31N 40°42' W 074°01'3 2.8
2018-Nov-05 23:31N 40°41' W 074°04'0 0.5
2018-Nov-05 23:03N 40°41' W 074°04'0 6.1
2018-Nov-05 23:00N 40°41' W 074°05'0 0.7
2018-Nov-05 22:30N 40°41' W 074°04'2 4.2
2018-Nov-05 22:03N 40°41' W 074°02'116.9
2018-Nov-05 22:00N 40°41' W 074°03'2 3.2
2018-Nov-05 21:30N 40°42' W 074°01'0 0.6
2018-Nov-05 21:03N 40°42' W 074°01'111.3
2018-Nov-05 21:00N 40°42' W 074°01'3 5.9
2018-Nov-05 20:30N 40°41' W 074°05'0 0.0
2018-Nov-05 20:03N 40°41' W 074°05'0 0.0
2018-Nov-05 20:00N 40°41' W 074°05'0 0.0
2018-Nov-05 15:55N 40°41' W 074°05'4 9.2
2018-Nov-05 15:30N 40°44' W 074°01'2 4.8
2018-Nov-05 15:03N 40°46' W 074°01'0 0.0
2018-Nov-05 15:00N 40°46' W 074°01'610.6
2018-Nov-05 14:27N 40°41' W 074°05'1 3.4
2018-Nov-05 14:03N 40°40' W 074°03'2 2.0
2018-Nov-05 13:03N 40°42' W 074°01'111.6
2018-Nov-05 13:01N 40°42' W 074°01'0 0.4
2018-Nov-05 12:30N 40°42' W 074°01'3 5.8
2018-Nov-05 12:03N 40°41' W 074°04'119.7
2018-Nov-05 12:00N 40°41' W 074°03'1 2.6
2018-Nov-05 11:30N 40°41' W 074°04'0 0.9
2018-Nov-05 11:03N 40°41' W 074°04'0 8.7
2018-Nov-05 11:00N 40°41' W 074°05'  
2018-Nov-03 00:09N 40°44' W 074°02'0 0.0
2018-Nov-03 00:03N 40°44' W 074°02'0 0.1
2018-Nov-03 00:00N 40°44' W 074°02'2 4.3
2018-Nov-02 23:31N 40°42' W 074°01'3 6.3
2018-Nov-02 23:03N 40°41' W 074°04'118.8
2018-Nov-02 23:01N 40°41' W 074°03'1 2.1
2018-Nov-02 22:31N 40°41' W 074°04'0 0.5
2018-Nov-02 22:03N 40°41' W 074°04'0 0.4
2018-Nov-02 22:00N 40°41' W 074°04'0 1.0
2018-Nov-02 21:30N 40°41' W 074°04'3 5.9
2018-Nov-02 21:03N 40°42' W 074°01'119.2
2018-Nov-02 21:00N 40°41' W 074°02'1 2.3
2018-Nov-02 20:30N 40°42' W 074°01'1 2.4
2018-Nov-02 20:04N 40°41' W 074°02'120.7
2018-Nov-02 20:00N 40°42' W 074°01'3 6.0
2018-Nov-02 19:30N 40°41' W 074°04'0 0.0
2018-Nov-02 15:22N 40°41' W 074°04'2 8.2
2018-Nov-02 15:04N 40°43' W 074°02'111.7
2018-Nov-02 15:01N 40°43' W 074°01'3 6.0
2018-Nov-02 14:30N 40°46' W 074°01'0 0.0
2018-Nov-02 14:00N 40°46' W 074°01'611.7
2018-Nov-02 13:30N 40°41' W 074°05'2 3.5
2018-Nov-02 13:04N 40°41' W 074°03'123.4
2018-Nov-02 13:01N 40°41' W 074°04'2 3.6
2018-Nov-02 12:31N 40°41' W 074°02'1 2.2
2018-Nov-02 12:03N 40°42' W 074°01'0 1.8
2018-Nov-02 12:01N 40°42' W 074°01'1 1.3
2018-Nov-02 11:31N 40°42' W 074°01'2 4.8
2018-Nov-02 11:03N 40°41' W 074°04'113.4
2018-Nov-02 11:00N 40°41' W 074°03'1 2.3
2018-Nov-02 10:30N 40°41' W 074°04'0 0.8
2018-Nov-02 10:03N 40°41' W 074°04'0 6.6
2018-Nov-02 10:00N 40°41' W 074°05'0 0.0
2018-Nov-01 23:40N 40°41' W 074°04'318.3
2018-Nov-01 23:31N 40°42' W 074°01'3 6.1
2018-Nov-01 23:03N 40°41' W 074°04'117.2
2018-Nov-01 23:01N 40°41' W 074°03'1 1.9
2018-Nov-01 22:30N 40°41' W 074°04'0 0.5
2018-Nov-01 22:03N 40°41' W 074°04'0 8.5
2018-Nov-01 22:00N 40°41' W 074°04'1 1.8
2018-Nov-01 21:31N 40°41' W 074°04'3 6.0
2018-Nov-01 21:04N 40°42' W 074°01'119.9
2018-Nov-01 21:00N 40°41' W 074°02'1 2.1
2018-Nov-01 20:30N 40°42' W 074°01'1 2.5
2018-Nov-01 20:03N 40°41' W 074°02'122.3
2018-Nov-01 20:00N 40°42' W 074°01'3 0.5
2018-Nov-01 14:09N 40°41' W 074°04'0 1.9
2018-Nov-01 14:00N 40°41' W 074°04'0 0.6
2018-Nov-01 13:30N 40°41' W 074°05'2 3.5
2018-Nov-01 13:03N 40°41' W 074°03'121.2
2018-Nov-01 13:00N 40°41' W 074°04'1 2.2
2018-Nov-01 12:30N 40°41' W 074°03'2 4.7
2018-Nov-01 12:03N 40°42' W 074°01'0 4.8
2018-Nov-01 12:00N 40°42' W 074°01'1 2.8
2018-Nov-01 11:30N 40°41' W 074°02'1 3.1
2018-Nov-01 11:03N 40°41' W 074°04'117.5
2018-Nov-01 11:00N 40°41' W 074°03'1 2.0
2018-Nov-01 10:30N 40°41' W 074°04'0 0.4
2018-Nov-01 10:03N 40°41' W 074°04'0 6.7
2018-Nov-01 10:00N 40°41' W 074°05'  

Dump ship's entire track history